Racecast

Mckinley Wheeler

Iowa State (IA) · Jr · NY DA2 DAALBANY · Compare head to head

Athlete rating 116.4 2026 TF season
Best race 156.5 XC
Races 154
Seasons 11 2016 — 2026

RankedNation #2309·NCAA DI #1714·MIDWEST #304·BIG 12 #205·IA #47·Team #29 ?

Rating scale ?

Cross Country

2024 XC

Unattached (TX) · Grade ?

Date Meet Event Result Place Rating Difficulty PR/SR Flags
2024-08-30 Iowa State XC Course 5000m 18:56.8 30th · 3rd on team -0.044 ★CR SR CSR

2023 XC

Iowa State (IA) · Grade Fr

Date Meet Event Result Place Rating Difficulty PR/SR Flags
2023-10-13 Zimmer Championship Cross Country Course 6000m 22:21.7 30th · 3rd on team -0.071 ★PR ★CR SR CSR
2023-09-16 Mahoney Park 5000m 17:42.8 13th · 3rd on team -0.081 ★CR CSR
2023-09-01 Iowa State Cross Country Course 5000m 17:12.3 11th · 11th on team -0.044 ★PR ★CR SR CSR

2022 XC 139.4

Saratoga Springs (NY) · Grade 12

Date Meet Event Result Place Rating Difficulty PR/SR Flags
2022-12-03 Glendoveer Golf Course 5000m 17:57.3 33rd · 2nd on team 149.7 +0.031 ★CR CSR RSR
2022-11-26 Bowdoin Park 5000m 18:27.2 2nd · 1st on team 144.2 +0.018 ★CR CSR RSR
2022-11-19 Bowdoin Park 5000m 18:38.3 5th · 3rd on team 142.4 +0.018 CR CSR RSR
2022-11-12 Vernon Verona-Sherrill HS 5000m 19:00.3 9th · 4th on team 138.6 +0.003 ★CR CSR RSR
2022-11-05 Queensbury HS 5000m 18:20.9 4th · 4th on team 136.7 -0.046 ★CR CSR RSR
2022-10-29 Saratoga Spa Park 5000m 17:50 5th · 5th on team 133.0 -0.087 PR ★CR SR CSR RSR
2022-10-15 Saratoga State Park 4828m 18:32.2 11th · 4th on team 131.5 -0.037 ★CR SR CSR RSR

2021 XC 132.4

Saratoga Springs (NY) · Grade 11

Date Meet Event Result Place Rating Difficulty PR/SR Flags
2021-10-16 Saratoga Spa Park 4828m 19:16.6 15th · 7th on team 128.2 -0.037 SR CSR
2021-10-02 Tawasentha Park 4586m 17:28.3 5th · 5th on team 134.8 -0.018 ★PR ★CR SR CSR RSR
2021-09-18 Queensbury HS 5000m 18:48.6 3rd · 3rd on team 133.0 -0.046 CR SR CSR
2021-09-11 New Scotland Town Park 5000m 19:33 4th · 4th on team 133.4 -0.013 ★CR SR CSR RSR

2019 XC 136.5

Saratoga Springs (NY) · Grade 9

Date Meet Event Result Place Rating Difficulty PR/SR Flags
2019-12-07 Glendoveer Golf Course 5000m 18:26.1 35th · 2nd on team 145.2 +0.031 PR CR SR CSR RSR
2019-11-30 Bowdoin Park 5000m 18:46 10th · 2nd on team 140.8 +0.018 PR CR SR CSR RSR
2019-11-23 Bowdoin Park 5000m 18:50.8 7th · 2nd on team 140.2 +0.018 PR CR SR CSR RSR
2019-11-16 Plattsburgh State Fieldhouse 4828m 16:58.7 12th · 3rd on team 136.8 ★PR ★CR SR CSR RSR
2019-11-04 Saratoga Spa Park 4828m 17:41.1 7th · 3rd on team 136.7 -0.037 PR ★CR SR CSR RSR
2019-10-12 Saratoga Spa Park 4892m 18:37.1 13th · 7th on team 128.4 -0.058 ★PR ★CR SR CSR RSR
2019-08-31 Murray Athletic Center 4023m 15:53.2 8th · 4th on team 127.4 -0.017 ★PR ★CR SR CSR RSR

2018 XC 147.8

Saratoga Springs (NY) · Grade 8

Date Meet Event Result Place Rating Difficulty PR/SR Flags
2018-11-24 Bowdoin Park 5000m 19:30 24th · 3rd on team 154.5 +0.018 CR CSR RSR
2018-11-10 Sunken Meadow State Park 5000m 19:50.4 34th · 4th on team 149.9 -0.006 ★CR CSR RSR
2018-11-02 Saratoga Spa Park 4892m 18:45.4 15th · 5th on team 147.2 -0.058 PR CR SR CSR
2018-10-19 Saratoga Spa Park 4828m 18:59.9 6th · 5th on team 145.8 -0.037 PR CR SR CSR
2018-10-06 WakeMed Soccer Park 5000m 19:29.3 71st · 6th on team 148.6 -0.023 ★CR SR CSR RSR
2018-08-25 Great Meadow Park 5000m 20:56 27th · 7th on team 140.6 -0.013 ★CR SR CSR RSR

2017 XC 144.0

Saratoga Springs (NY) · Grade 7

Date Meet Event Result Place Rating Difficulty PR/SR Flags
2017-12-02 Glendoveer Golf Course 5000m 19:31.5 107th · 2nd on team 156.5 +0.031 CR ★R CSR RSR
2017-11-25 Bowdoin Park 5000m 20:27.8 51st · 4th on team 147.9 +0.018
2017-11-19 Smithfield High School 3000m 11:17.5 7th · 1st on team 144.4 -0.044 ★PR ★CR SR CSR
2017-11-18 Bowdoin Park 5000m 19:41.4 42nd · 4th on team 152.8 +0.018 CR R CSR RSR
2017-11-04 Saratoga Spa Park 2655m 11:54.5 1st · 1st on team 125.1 +0.104 ★PR ★CR SR CSR
2017-11-02 Saratoga State Park 4908m 19:16.1 29th · 5th on team 142.9 -0.054 ★PR ★CR SR CSR
2017-10-20 Saratoga Spa Park 5000m 19:11.9 3rd · 1st on team 141.7 -0.087 PR CR SR CSR
2017-10-14 Saratoga Spa Park 3000m 11:41.3 1st · 1st on team 147.1 +0.007 PR ★CR R SR CSR RSR
2017-10-07 WakeMed Soccer Park 5000m 20:26.4 1st · 1st on team 142.5 -0.023 PR CR R SR CSR RSR
2017-09-08 Colonie Town Park 2413m 9:49.3 7th · 1st on team 139.5 +0.018 ★PR ★CR R SR CSR RSR

2016 XC 128.8

Kinetic Running (NY) · Grade 6

Date Meet Event Result Place Rating Difficulty PR/SR Flags
2016-11-20 Saratoga State Park 3000m 13:19 73rd · 1st on team 128.8 +0.005 PR ★CR R SR CSR RSR

Track & Field

2026 TF 114.0

Iowa State (IA) · Grade Jr

Date Meet Event Result Place Rating Difficulty PR/SR Flags
2026-05-08 Cyclone Twilight 2026 1500m 4:35.83 16th · 8th on team 118.4 -0.023 SR RSR
2026-04-25 2026 Drake Relays 1500m 4:55.67 10th · 3rd on team 107.9 -0.045
2026-04-18 Bryan Clay Invitational 1500m 4:38.58 117th · 6th on team 113.9 -0.051
2026-04-10 Jim Duncan Invitational 1500m 4:37.07 4th · 1st on team 115.2 -0.045 SR
2026-04-10 Jim Duncan Invitational 800m 2:22.28 27th · 4th on team 109.3 -0.045 SR
2026-02-20 Iowa Open 1mile 5:03.28 10th · 7th on team 115.1 -0.040
2026-02-13 Tyson Invitational 1mile 5:01.8 51st · 4th on team 114.3 -0.049
2026-01-30 DeLoss Dodds Invitational 1mile 4:57.32 5th · 2nd on team 116.2 -0.048 SR
2026-01-23 Cyclone Open 1000m 2:52.63 6th · 6th on team 117.1 -0.041 SR RSR
2025-12-12 ISU Holiday Invitational 1000m 2:59.25 4th · 4th on team 112.9 -0.041 SR RSR

2025 TF

Iowa State (IA) · Grade So

Date Meet Event Result Place Rating Difficulty PR/SR Flags
2025-05-09 Cyclone Twilight 1500m 4:32.54 1st · 1st on team -0.023
2025-05-02 Meet results → 1500 Meters 4:32.54 1st · 1st on team ★PR SR
2025-04-23 2025 Drake Relays 1500m 4:39.82 22nd · 3rd on team -0.045
2025-04-18 Bryan Clay Invitational 1500m 4:29.9 46th · 1st on team -0.051 SR
2025-04-11 Meet results → 1500 Meters 4:38.43 11th · 7th on team PR SR
2025-03-29 Raleigh Relays 1500m 4:32.9 146th · 2nd on team -0.039 SR
2025-02-14 Tyson Invitational 3000m 9:40.31 12th · 3rd on team -0.049 SR
2025-02-14 Tyson Invitational 1mile 5:02.25 47th · 6th on team -0.049
2025-01-24 Cyclone Open 1mile 4:52.32 5th · 3rd on team -0.041 SR
2025-01-17 Bill Bergan Open 1mile 5:04.46 9th · 4th on team -0.041 SR
2024-12-13 ISU Holiday Invitational 1000m 2:50.75 3rd · 3rd on team -0.041 ★PR SR
2024-12-13 ISU Holiday Invitational 3000m 10:05.66 5th · 3rd on team -0.041 SR

2024 TF

Iowa State (IA) · Grade Fr

Date Meet Event Result Place Rating Difficulty PR/SR Flags
2024-03-30 Stanford Invitational - Collegiate 1500m 4:28.67 7th · 1st on team -0.045 ★PR SR
2024-02-24 Big 12 Indoor Championships 3000m 10:00.41 27th · 9th on team -0.033
2024-02-24 Big 12 Indoor Championships 1mile 5:00.13 27th · 3rd on team -0.033
2024-02-10 2024 Husky Classic 3000m 9:34.04 49th · 3rd on team -0.046 ★PR SR
2024-01-27 Razorback Invitational 1mile 4:54.23 12th · 3rd on team -0.049
2024-01-19 Cyclone Open 1mile 4:49.49 3rd · 2nd on team -0.041 SR
2023-12-09 Iowa State Holiday Invitational 3000m 9:39.16 1st · 1st on team -0.041 SR

2023 TF 136.3

Saratoga Springs (NY) · Grade 12

Date Meet Event Result Place Rating Difficulty PR/SR Flags
2023-05-24 Section 2 Group 1 Championships 1500m 4:33.33 2nd · 2nd on team 137.9 -0.041
2023-05-24 Section 2 Group 1 Championships 800m 2:15.98 4th · 2nd on team 134.2 -0.041 ★PR SR
2023-05-24 Section 2 Group 1 Championships 3000m 10:00.3 1st · 1st on team 135.6 -0.041
2023-05-20 80th Annual Eddy Meet 3000m 9:43.69 1st · 1st on team 138.8 -0.046
2023-05-17 Girls Suburban Council Championships 3000m 10:11.5 2nd · 2nd on team 132.7 -0.045
2023-05-17 Girls Suburban Council Championships 800m 2:18.87 3rd · 2nd on team 131.4 -0.045
2023-05-17 Girls Suburban Council Championships 1500m 4:38.94 1st · 1st on team 134.9 -0.045
2023-05-13 Glenn D. Loucks Games 2023 1mile 4:46.73 2nd · 1st on team 139.9 -0.058 ★PR SR
2023-04-22 Niskayuna Warrior Track and Field Classic 2023 1500m 4:32.25 1st · 1st on team 138.3 -0.041 PR SR
2023-04-18 Guilderland Girls Triangular Meet 3000m 10:42.75 1st · 1st on team 128.9 -0.024
2023-04-18 Guilderland Girls Triangular Meet 800m 2:16.17 3rd · 2nd on team 136.3 -0.024 PR SR
2023-03-04 NYSPHSAA Indoor State Championships 3000m 9:37.5 2nd · 1st on team 141.9 -0.053 PR SR RSR
2023-02-17 Garden State Invitational 1600m 4:49.64 2nd · 1st on team 138.6 -0.053 ★PR SR
2023-02-11 115th Millrose Games 1500m 4:34.26 5th · 1st on team 136.4 -0.050 PR SR
2023-02-11 115th Millrose Games 1mile 4:52.7 5th · 1st on team 138.6 -0.050 PR SR
2023-02-11 115th Millrose Games 1600m 4:51.15 5th · 1st on team 138.4 -0.050 PR SR
2023-02-05 Section 2 State Qualifier 3000m 9:58.84 1st · 1st on team 139.5 -0.016 SR RSR
2023-01-29 Section 2 Division I Championship 1500m 4:49.77 3rd · 2nd on team 133.3 -0.037 SR
2023-01-29 Section 2 Division I Championship 3000m 10:21.72 2nd · 2nd on team 133.4 -0.037
2023-01-21 Suburban Council Girls Varsity and Freshmen Championships 3000m 10:16.39 1st · 1st on team 134.6 -0.037 SR
2022-12-27 MSTCA Boston Holiday Challenge 1mile 4:53.69 1st · 1st on team 138.7 -0.049 PR SR RSR

2022 TF 132.8

Saratoga Springs (NY) · Grade 11

Date Meet Event Result Place Rating Difficulty PR/SR Flags
2022-06-11 NYSPHSAA Outdoor Track & Field Championships 3000m 9:51.68 5th · 1st on team 138.1 -0.043
2022-06-03 Section 2 State Qualifier 3000m 10:14.19 2nd · 1st on team 134.3 -0.039
2022-05-25 Section 2 Group 1 3000m 10:02 2nd · 2nd on team 135.8 -0.041
2022-05-18 Girls Suburban Council Championships 3000m 10:08.45 3rd · 2nd on team 133.4 -0.053
2022-05-14 Glen Loucks Games 1mile 5:10.51 20th · 2nd on team 129.7 -0.057
2022-05-11 Shaker vs Saratoga and Bethlehem 1500m 4:56.01 1st · 1st on team 130.2 -0.025
2022-04-28 Penn Relays - HS Day 1 3000m 10:13.69 18th · 2nd on team 133.0 -0.049
2022-04-22 New York Relays 1mile 5:03.12 1st · 1st on team 134.0 -0.050
2022-03-05 NYSPHSAA/NYS Federation Indoor Championships 3000m 9:49.33 3rd · 2nd on team 139.7 -0.053 PR SR RSR
2022-02-26 Ocean Breeze Elite HS Invitational 1mile 4:57.81 2nd · 2nd on team 136.2 -0.053 PR SR RSR
2022-02-26 Ocean Breeze Elite HS Invitational 1500m 4:39.28 1st · 1st on team 134.0 -0.053 PR SR
2022-01-29 Section 2 Division I Championship 3000m 10:21.81 3rd · 3rd on team 134.0 -0.037 SR RSR
2022-01-23 The TCITL Frank DeMasi Utica Invitational 3000m 10:41.32 3rd · 2nd on team 127.9 -0.046
2022-01-23 The TCITL Frank DeMasi Utica Invitational 1500m 4:56.42 5th · 2nd on team 128.3 -0.046 SR
2022-01-15 Section 2 League Meets 6 600m 1:47.5 4th · 4th on team -0.037 ★PR SR
2022-01-15 Section 2 League Meets 6 1000m 3:10.9 2nd · 2nd on team 128.1 -0.037 SR
2021-12-27 Boston Holiday Challenge 1mile 5:13.96 5th · 2nd on team 130.3 -0.049 SR RSR
2021-12-27 MSTCA Boston Holiday Classic 1mile 5:13.96 5th · 2nd on team 130.3 -0.049
2021-12-18 Race results → 3000m 10:37.42 4th · 3rd on team SR

2020 TF 134.1

Saratoga Springs (NY) · Grade 9

Date Meet Event Result Place Rating Difficulty PR/SR Flags
2020-02-09 Suburban Council Championships 3000m 10:22.8 3rd · 2nd on team 136.1 -0.010
2020-02-09 Suburban Council Championships 1500m 4:48.96 4th · 2nd on team 135.9 -0.010 PR SR
2020-01-04 Ocean Breeze Freedom Games 3000m 9:58.53 2nd · 2nd on team 138.2 -0.053 PR SR RSR
2020-01-04 Ocean Breeze Freedom Games 1000m 3:05.14 13th · 3rd on team 127.3 -0.053 PR SR
2019-12-27 Holiday Challenge 1mile 5:08.84 1st · 1st on team 132.9 -0.049 PR SR RSR

2019 TF 141.5

Kinetic Running (NY) · Grade 8

Date Meet Event Result Place Rating Difficulty PR/SR Flags
2019-06-16 2019 New Balance Nationals Outdoor 2miles 11:04.58 1st · 1st on team 144.7 -0.046 ★PR SR
2019-06-16 2019 New Balance Nationals Outdoor 3000m 10:22.13 1st · 1st on team 143.1 -0.046
2019-06-08 NYSPHSAA Outdoor Track & Field Championships 3000m 10:15.88 16th · 3rd on team 144.9 -0.042
2019-05-22 Section 2 Group 1 Sectional Championships 1500m 4:49.2 5th · 3rd on team 142.5 -0.039 PR SR
2019-05-22 Section 2 Group 1 Sectional Championships 3000m 10:06.92 3rd · 3rd on team 147.3 -0.039 PR SR RSR
2019-05-18 The Eddy Meet 3000m 10:11.71 4th · 3rd on team 146.5 -0.046 PR SR RSR
2019-05-15 Section 2 Suburban Council Girls Varsity Championships 1500m 4:49.79 7th · 3rd on team 141.2 -0.046 PR SR
2019-05-15 Section 2 Suburban Council Girls Varsity Championships 3000m 10:15.44 4th · 3rd on team 143.8 -0.046 PR SR
2019-05-11 Glen Loucks Games 3200m 10:55.64 7th · 3rd on team 145.1 -0.053 ★PR SR
2019-04-20 New York Relays 3000m 10:27.65 6th · 3rd on team 141.9 -0.050 SR
2019-04-13 CBA/La Salle Relays 1500m 5:09.89 3rd · 2nd on team 133.8 -0.030
2019-03-02 NYSPHSAA/NYS Federation Indoor Championships 1500m 4:53.7 18th · 1st on team 138.7 -0.053
2019-02-24 Section 2 State Qualifier 1500m 4:52.11 3rd · 2nd on team 145.4 -0.010 PR SR
2019-02-18 Section 2 Division 1 Championships 3000m 10:31.05 2nd · 2nd on team 146.1 -0.010 SR RSR
2019-02-03 Section 2 Suburban Council Championships 1500m 4:58.66 4th · 3rd on team 142.3 -0.010 RSR
2019-02-03 Section 2 Suburban Council Championships 3000m 10:37.15 3rd · 2nd on team 144.7 -0.010 SR RSR
2019-01-25 Utica Challenge Invitational 1500m 4:59.12 4th · 1st on team 138.5 -0.046
2019-01-06 TCITL Springfield Invitational 1500m 4:58.58 10th · 3rd on team 139.3 -0.042 PR SR
2019-01-06 NY Section 2 Springfield College Invite 1500m 4:58.58 10th · 3rd on team 139.3 -0.042
2019-01-06 TCITL Springfield Invitational 3000m 10:39.7 1st · 1st on team 140.6 -0.042 SR
2019-01-06 NY Section 2 Springfield College Invite 3000m 10:39.7 1st · 1st on team 140.6 -0.042
2018-12-27 Tri Country Indoor Track League #4D 3000m 10:46.7 3rd · 3rd on team 140.8 -0.037 SR RSR
2018-12-15 Tri County Indoor Track League 2B 1000m 3:22.8 5th · 2nd on team 130.1 -0.016 PR SR RSR
2018-12-15 Tri County Indoor Track League 2B 1500m 5:13 3rd · 2nd on team 134.9 -0.016 SR RSR

2018 TF 138.4

Saratoga Springs (NY) · Grade 7

Date Meet Event Result Place Rating Difficulty PR/SR Flags
2018-06-01 NYSPHSAA Section 2 Qualifier 3000m 10:41.01 10th · 4th on team 139.8 -0.039
2018-05-23 NYSPHSAA Section 2 Group 1 Championships 3000m 10:23.36 7th · 3rd on team 143.8 -0.039 PR SR RSR
2018-05-19 The Eddy Meet 3000m 10:29.31 7th · 4th on team 141.5 -0.046 PR SR RSR
2018-05-19 Eddy Meet 3000m 10:29.31 7th · 4th on team 141.5 -0.046
2018-05-16 Girls Varsity Suburban Championships 3000m 10:31.86 6th · 3rd on team 140.2 -0.053 PR SR
2018-05-12 Glenn Loucks Games 3200m 11:20.82 10th · 4th on team 138.5 -0.053 PR SR
2018-04-21 New York Relays 3000m 10:37.7 9th · 5th on team 138.9 -0.050 PR SR
2018-03-11 New Balance Nationals Indoor 1mile 5:28.06 15th · 2nd on team 135.0 -0.050 PR SR
2018-02-25 Section 2 State Qualifier 3000m 10:57.33 9th · 4th on team 140.3 -0.010 RSR
2018-02-25 Section 2 State Qualifier 1500m 5:17.98 11th · 5th on team 133.5 -0.010
2018-02-04 Last Chance Invite 3000m 10:54.01 5th · 2nd on team 137.6 -0.042
2018-01-28 Section 2 Suburban Council Girls Championships 3000m 10:49.95 2nd · 1st on team 140.1 -0.037 PR SR RSR
2018-01-20 New Balance Games 2miles 12:01.66 13th · 4th on team 135.5 -0.050 PR SR
2017-12-27 Boston Holiday Challenge 1mile 5:34.82 2nd · 1st on team 132.0 -0.049 PR SR
2017-12-18 Section 2 League Meet 4B 600m 1:58.3 9th · 4th on team -0.016 PR SR
2017-12-18 Section 2 League Meet 4B 1500m 5:05.7 4th · 4th on team 137.7 -0.016 PR SR
2017-12-10 Section 2 League 3A Meet 3000m 11:02 2nd · 2nd on team 138.5 -0.016 PR SR RSR